Погода Порытена 2 недели

Подляское воеводство, Польша

17 - 30 июля
  • 17июля
    Сегодня
    +16°
    +29°
    Практически безоблачно
    ВремяПогодаТемператураВлажностьДавлениеВетер, м/сВероятность осадков
    02:00Небольшая облачность, возможен дождь с грозой+21°C91 %751 мм1.5 м/с45 %
    05:00Практически безоблачно+19°C91 %752 мм4.1 м/с3 %
    08:00Ясно и безоблачно+23°C87 %754 мм2.6 м/с2 %
    11:00Облачно с прояснениями+27°C52 %754 мм4.3 м/с3 %
    14:00Практически безоблачно+28°C46 %754 мм4.8 м/с3 %
    17:00Ясно и безоблачно+28°C39 %754 мм4.5 м/с2 %
    20:00Облачно с прояснениями+24°C50 %755 мм2.8 м/с2 %
    23:00Облачно с прояснениями+19°C64 %756 мм1.9 м/с4 %
  • 18июля
    Четверг
    +13°
    +27°
    Облачно с прояснениями
    ВремяПогодаТемператураВлажностьДавлениеВетер, м/сВероятность осадков
    02:00Ясно и безоблачно+17°C76 %755 мм1.9 м/с2 %
    05:00Ясно и безоблачно+16°C82 %756 мм2.1 м/с1 %
    08:00Ясно и безоблачно+21°C67 %757 мм2.1 м/с2 %
    11:00Практически безоблачно+24°C49 %757 мм3.8 м/с13 %
    14:00Облачно с прояснениями+25°C44 %757 мм5.0 м/с21 %
    17:00Ясно и безоблачно+26°C42 %756 мм5.0 м/с4 %
    20:00Ясно и безоблачно+23°C53 %757 мм2.7 м/с2 %
    23:00Небольшая облачность+18°C72 %757 мм2.4 м/с2 %
  • 19июля
    Пятница
    +11°
    +26°
    Ясно и безоблачно
    ВремяПогодаТемператураВлажностьДавлениеВетер, м/сВероятность осадков
    02:00Практически безоблачно+16°C87 %758 мм1.9 м/с2 %
    05:00Ясно и безоблачно+14°C95 %757 мм1.6 м/с2 %
    08:00Ясно и безоблачно+18°C72 %758 мм2.3 м/с2 %
    11:00Ясно и безоблачно+23°C51 %757 мм3.7 м/с2 %
    14:00Ясно и безоблачно+25°C43 %756 мм4.6 м/с2 %
    17:00Практически безоблачно+25°C41 %755 мм4.5 м/с2 %
    20:00Ясно и безоблачно+22°C51 %755 мм2.4 м/с2 %
    23:00Ясно и безоблачно+16°C66 %755 мм2.3 м/с2 %
  • 20июля
    Суббота
    +14°
    +26°
    Ясно и безоблачно
    ВремяПогодаТемператураВлажностьДавлениеВетер, м/сВероятность осадков
    02:00Облачно с прояснениями+13°C85 %754 мм2.2 м/с2 %
    05:00Облачно с прояснениями+12°C93 %753 мм1.5 м/с2 %
    08:00Практически безоблачно+18°C67 %753 мм2.1 м/с2 %
    11:00Ясно и безоблачно+22°C51 %752 мм2.6 м/с2 %
    14:00Ясно и безоблачно+25°C41 %752 мм2.3 м/с2 %
    17:00Ясно и безоблачно+25°C39 %750 мм2.0 м/с2 %
    20:00Ясно и безоблачно+23°C60 %750 мм1.7 м/с2 %
    23:00Ясно и безоблачно+18°C65 %750 мм2.6 м/с2 %
  • 21июля
    Воскресенье
    +15°
    +28°
    Практически безоблачно
    ВремяПогодаТемператураВлажностьДавлениеВетер, м/сВероятность осадков
    02:00Ясно и безоблачно+16°C83 %749 мм1.7 м/с2 %
    05:00Ясно и безоблачно+14°C90 %749 мм1.7 м/с2 %
    08:00Ясно и безоблачно+20°C68 %749 мм1.3 м/с2 %
    11:00Ясно и безоблачно+24°C48 %749 мм1.1 м/с2 %
    14:00Практически безоблачно+26°C41 %748 мм1.9 м/с5 %
    17:00Ясно и безоблачно+27°C35 %747 мм1.7 м/с3 %
    20:00Ясно и безоблачно+24°C52 %747 мм1.8 м/с2 %
    23:00Ясно и безоблачно+19°C49 %747 мм3.1 м/с2 %
Мы используем cookies
Соглашаюсь